Time;durP1;ratioP1;P1;durP2;ratioP2;P2;SDS_P1;SDS_P2;PMS_P1;PMS_P2;Temp;Humidity;BMP_temperature;BMP_pressure;BME280_temperature;BME280_humidity;BME280_pressure;Samples;Min_cycle;Max_cycle;Signal;HPM_P1;HPM_P2
2022/12/29 00:00:00;;;;;;;4.72;3.03;;;;;;;;;;4972986;28;20443;-68
2022/12/29 00:02:25;;;;;;;6.95;3.08;;;;;;;;;;4973366;28;20429;-69
2022/12/29 00:04:51;;;;;;;4.95;2.70;;;;;;;;;;4975131;28;20461;-69
2022/12/29 00:07:17;;;;;;;6.32;2.90;;;;;;;;;;4982749;28;20026;-68
2022/12/29 00:09:42;;;;;;;4.90;2.45;;;;;;;;;;4985151;28;20067;-68
2022/12/29 00:12:08;;;;;;;8.13;2.63;;;;;;;;;;4984014;28;20126;-68
2022/12/29 00:17:17;;;;;;;4.35;2.47;;;;;;;;;;4982898;28;20171;-68
2022/12/29 00:36:19;;;;;;;4.03;2.10;;;;;;;;;;4985059;28;20080;-68
2022/12/29 00:44:17;;;;;;;3.78;2.08;;;;;;;;;;4984635;28;20081;-67
2022/12/29 00:46:43;;;;;;;5.00;2.25;;;;;;;;;;4982587;28;20034;-67
2022/12/29 00:51:55;;;;;;;6.40;2.42;;;;;;;;;;4984532;28;20073;-68
2022/12/29 00:54:21;;;;;;;5.50;2.45;;;;;;;;;;4982591;28;20120;-68
2022/12/29 00:56:48;;;;;;;3.55;2.20;;;;;;;;;;4984139;28;20423;-68
2022/12/29 00:59:13;;;;;;;5.25;2.20;;;;;;;;;;4983995;28;20031;-68
2022/12/29 01:01:39;;;;;;;4.97;2.70;;;;;;;;;;4982187;28;20309;-68
2022/12/29 01:04:05;;;;;;;5.20;2.05;;;;;;;;;;4984370;28;20022;-68
2022/12/29 01:06:31;;;;;;;2.95;1.98;;;;;;;;;;4983382;28;20034;-68
2022/12/29 01:11:41;;;;;;;2.88;1.70;;;;;;;;;;4993776;28;20372;-68
2022/12/29 01:14:07;;;;;;;3.70;2.05;;;;;;;;;;4993508;28;20026;-68
2022/12/29 01:16:32;;;;;;;4.55;2.08;;;;;;;;;;4993230;28;20030;-68
2022/12/29 01:18:58;;;;;;;5.13;2.28;;;;;;;;;;4993599;28;20034;-68
2022/12/29 01:21:24;;;;;;;4.15;2.50;;;;;;;;;;4993372;28;20041;-69
2022/12/29 01:23:50;;;;;;;4.63;2.45;;;;;;;;;;4993502;28;20181;-68
2022/12/29 01:26:16;;;;;;;5.47;2.70;;;;;;;;;;4993438;28;20023;-68
2022/12/29 01:28:42;;;;;;;3.25;2.10;;;;;;;;;;4993210;28;20108;-68
2022/12/29 01:31:12;;;;;;;3.13;2.15;;;;;;;;;;4993041;28;20061;-68
2022/12/29 01:33:38;;;;;;;4.00;2.58;;;;;;;;;;4992039;28;20042;-68
2022/12/29 01:36:07;;;;;;;6.05;2.35;;;;;;;;;;4993204;28;20047;-68
2022/12/29 01:38:34;;;;;;;5.53;2.45;;;;;;;;;;4993188;28;20077;-68
2022/12/29 01:41:00;;;;;;;4.90;2.35;;;;;;;;;;4993006;28;20046;-68
2022/12/29 01:43:51;;;;;;;5.20;2.25;;;;;;;;;;4992899;28;20510;-68
2022/12/29 01:46:24;;;;;;;4.43;2.28;;;;;;;;;;4993217;28;20030;-68
2022/12/29 01:49:12;;;;;;;5.18;1.85;;;;;;;;;;4993231;28;20105;-68
2022/12/29 01:51:45;;;;;;;3.65;2.03;;;;;;;;;;4992959;28;20057;-68
2022/12/29 01:54:19;;;;;;;2.72;1.83;;;;;;;;;;4993164;28;20034;-68
2022/12/29 01:56:45;;;;;;;3.92;2.45;;;;;;;;;;4994818;28;20085;-68
2022/12/29 01:59:17;;;;;;;6.22;2.30;;;;;;;;;;4996759;28;20451;-68
2022/12/29 02:01:43;;;;;;;6.22;2.60;;;;;;;;;;4996789;28;20030;-68
2022/12/29 02:04:11;;;;;;;3.60;2.38;;;;;;;;;;4997043;28;20114;-68
2022/12/29 02:07:01;;;;;;;8.27;2.53;;;;;;;;;;4996730;28;20023;-68
2022/12/29 02:09:26;;;;;;;4.60;2.50;;;;;;;;;;4996562;28;20097;-67
2022/12/29 02:11:52;;;;;;;3.28;1.95;;;;;;;;;;4996765;28;20022;-67
2022/12/29 02:14:17;;;;;;;4.35;2.38;;;;;;;;;;4996523;28;20030;-68
2022/12/29 02:17:06;;;;;;;4.03;2.70;;;;;;;;;;4996720;28;20105;-67
2022/12/29 02:20:03;;;;;;;3.25;2.17;;;;;;;;;;4992561;28;20451;-67
2022/12/29 02:22:35;;;;;;;4.40;2.50;;;;;;;;;;4996463;28;20030;-67
2022/12/29 02:25:31;;;;;;;3.22;2.03;;;;;;;;;;4996471;28;20072;-67
2022/12/29 02:28:26;;;;;;;3.42;2.25;;;;;;;;;;4996358;28;20030;-67
2022/12/29 02:31:25;;;;;;;3.67;2.40;;;;;;;;;;4974700;28;20035;-68
2022/12/29 02:34:22;;;;;;;7.60;2.58;;;;;;;;;;4955399;29;20047;-67
2022/12/29 02:37:02;;;;;;;5.63;2.40;;;;;;;;;;4955468;29;20138;-67
2022/12/29 02:39:40;;;;;;;4.60;2.72;;;;;;;;;;4955363;29;20034;-68
2022/12/29 02:42:37;;;;;;;3.17;2.15;;;;;;;;;;4955111;29;20109;-68
2022/12/29 02:45:29;;;;;;;3.13;2.08;;;;;;;;;;4898079;29;20044;-68
2022/12/29 02:47:58;;;;;;;2.55;1.80;;;;;;;;;;4860847;29;20053;-67
2022/12/29 02:50:26;;;;;;;5.97;2.63;;;;;;;;;;4860736;29;20541;-67
2022/12/29 02:52:59;;;;;;;3.67;2.40;;;;;;;;;;4860901;29;20033;-67
2022/12/29 02:55:24;;;;;;;4.85;2.10;;;;;;;;;;4860828;29;20048;-68
2022/12/29 02:58:17;;;;;;;3.97;2.42;;;;;;;;;;4860513;29;20042;-67
2022/12/29 03:00:51;;;;;;;3.75;2.20;;;;;;;;;;4860599;29;20504;-67
2022/12/29 03:03:51;;;;;;;4.90;1.90;;;;;;;;;;4860700;29;20239;-67
2022/12/29 03:06:43;;;;;;;2.95;1.90;;;;;;;;;;4858922;29;20116;-67
2022/12/29 03:09:23;;;;;;;14.40;2.20;;;;;;;;;;4844528;29;20053;-67
2022/12/29 03:12:07;;;;;;;3.03;2.00;;;;;;;;;;4878878;29;20495;-67
2022/12/29 03:17:48;;;;;;;4.55;2.20;;;;;;;;;;4879357;29;20133;-68
2022/12/29 03:20:21;;;;;;;4.40;2.20;;;;;;;;;;4863439;29;20037;-68
2022/12/29 03:22:49;;;;;;;3.13;2.10;;;;;;;;;;4913639;29;20186;-68
2022/12/29 03:25:21;;;;;;;3.28;2.20;;;;;;;;;;4972799;28;20038;-68
2022/12/29 03:28:01;;;;;;;3.25;2.75;;;;;;;;;;4995397;28;20026;-68
2022/12/29 03:30:28;;;;;;;4.55;2.28;;;;;;;;;;5013885;28;20030;-68
2022/12/29 03:33:01;;;;;;;3.17;2.03;;;;;;;;;;5014922;28;20061;-67
2022/12/29 03:35:31;;;;;;;3.13;1.98;;;;;;;;;;5014775;28;20438;-68
2022/12/29 03:38:05;;;;;;;3.88;2.17;;;;;;;;;;5014671;28;20084;-68
2022/12/29 03:40:33;;;;;;;5.03;2.30;;;;;;;;;;5014326;28;20029;-67
2022/12/29 03:42:59;;;;;;;2.90;1.90;;;;;;;;;;5014348;28;20057;-67
2022/12/29 03:45:24;;;;;;;3.78;2.10;;;;;;;;;;5013345;28;20379;-67
2022/12/29 03:47:52;;;;;;;5.75;2.00;;;;;;;;;;5014588;28;20486;-67
2022/12/29 03:50:17;;;;;;;5.68;2.40;;;;;;;;;;5014291;28;20084;-67
2022/12/29 03:52:42;;;;;;;4.95;2.30;;;;;;;;;;5014474;28;20034;-67
2022/12/29 03:55:08;;;;;;;5.03;2.40;;;;;;;;;;5014216;28;20018;-67
2022/12/29 03:57:33;;;;;;;5.85;2.70;;;;;;;;;;5014407;28;20391;-68
2022/12/29 03:59:59;;;;;;;2.83;1.95;;;;;;;;;;5014276;28;20018;-68
2022/12/29 04:02:24;;;;;;;4.07;2.42;;;;;;;;;;5014135;28;20498;-68
2022/12/29 04:04:50;;;;;;;4.15;2.70;;;;;;;;;;5014326;28;20482;-68
2022/12/29 04:07:15;;;;;;;6.90;2.50;;;;;;;;;;5014167;28;20037;-68
2022/12/29 04:09:40;;;;;;;4.72;2.30;;;;;;;;;;5013949;28;20037;-68
2022/12/29 04:12:06;;;;;;;4.82;2.63;;;;;;;;;;5014216;28;20025;-67
2022/12/29 04:14:31;;;;;;;5.07;2.30;;;;;;;;;;5014132;28;20371;-68
2022/12/29 04:16:57;;;;;;;3.58;2.10;;;;;;;;;;5012807;28;20528;-68
2022/12/29 04:19:22;;;;;;;4.97;2.40;;;;;;;;;;5013423;28;20032;-68
2022/12/29 04:21:47;;;;;;;2.95;2.03;;;;;;;;;;5013822;28;20036;-68
2022/12/29 04:24:13;;;;;;;4.65;2.40;;;;;;;;;;5013621;28;20033;-68
2022/12/29 04:26:39;;;;;;;5.28;2.53;;;;;;;;;;5013734;28;20080;-68
2022/12/29 04:29:04;;;;;;;6.50;2.70;;;;;;;;;;5013720;28;20049;-67
2022/12/29 04:31:30;;;;;;;5.72;2.00;;;;;;;;;;5013669;28;20069;-67
2022/12/29 04:33:57;;;;;;;3.15;2.10;;;;;;;;;;5013668;28;20076;-67
2022/12/29 04:36:22;;;;;;;6.55;2.30;;;;;;;;;;5013708;28;20025;-67
2022/12/29 04:38:48;;;;;;;3.85;2.30;;;;;;;;;;5013405;28;20086;-68
2022/12/29 04:41:13;;;;;;;6.07;3.53;;;;;;;;;;5013388;28;20022;-69
2022/12/29 04:43:39;;;;;;;3.83;2.08;;;;;;;;;;5013373;28;20038;-68
2022/12/29 04:46:05;;;;;;;4.22;2.20;;;;;;;;;;5013536;28;20025;-67
2022/12/29 04:48:30;;;;;;;2.85;1.73;;;;;;;;;;5013369;28;20084;-68
2022/12/29 04:50:56;;;;;;;2.47;1.80;;;;;;;;;;5013299;28;20021;-68
2022/12/29 04:53:21;;;;;;;3.63;2.28;;;;;;;;;;5013038;28;20356;-68
2022/12/29 04:55:51;;;;;;;6.35;1.80;;;;;;;;;;5013247;28;20099;-68
2022/12/29 04:58:18;;;;;;;4.70;2.50;;;;;;;;;;5013214;28;20021;-67
2022/12/29 05:00:43;;;;;;;3.75;2.13;;;;;;;;;;5013221;28;20026;-68
2022/12/29 05:03:08;;;;;;;3.75;2.05;;;;;;;;;;5013167;28;20076;-67
2022/12/29 05:05:34;;;;;;;4.35;1.98;;;;;;;;;;5013334;28;20076;-68
2022/12/29 05:07:59;;;;;;;4.60;2.05;;;;;;;;;;5013068;28;20072;-68
2022/12/29 05:10:25;;;;;;;3.03;1.88;;;;;;;;;;5013048;28;20022;-68
2022/12/29 05:12:50;;;;;;;4.72;2.20;;;;;;;;;;5013255;28;20430;-68
2022/12/29 05:15:17;;;;;;;4.90;1.95;;;;;;;;;;5013033;28;20033;-68
2022/12/29 05:17:42;;;;;;;4.15;2.33;;;;;;;;;;5013066;28;20415;-68
2022/12/29 05:20:08;;;;;;;6.25;2.28;;;;;;;;;;5012630;28;20041;-68
2022/12/29 05:22:34;;;;;;;3.90;2.38;;;;;;;;;;5012788;28;20076;-68
2022/12/29 05:24:59;;;;;;;3.92;2.60;;;;;;;;;;5012969;28;20026;-68
2022/12/29 05:27:25;;;;;;;6.47;3.45;;;;;;;;;;5012806;28;20464;-68
2022/12/29 05:29:50;;;;;;;7.55;4.35;;;;;;;;;;5012870;28;20042;-68
2022/12/29 05:32:16;;;;;;;4.00;2.47;;;;;;;;;;5015482;28;20022;-68
2022/12/29 05:34:41;;;;;;;4.93;2.72;;;;;;;;;;5017104;28;20029;-68
2022/12/29 05:37:06;;;;;;;5.28;2.40;;;;;;;;;;5016691;28;20029;-68
2022/12/29 05:39:32;;;;;;;6.53;2.45;;;;;;;;;;5016591;28;20033;-68
2022/12/29 05:41:57;;;;;;;4.18;2.42;;;;;;;;;;5016676;28;20041;-68
2022/12/29 05:44:23;;;;;;;4.28;2.40;;;;;;;;;;5016934;28;20033;-68
2022/12/29 05:46:48;;;;;;;4.95;2.17;;;;;;;;;;5016807;28;20456;-68
2022/12/29 05:49:14;;;;;;;3.72;1.80;;;;;;;;;;5016714;28;20036;-68
2022/12/29 05:51:39;;;;;;;5.15;2.30;;;;;;;;;;5009087;28;20038;-68
2022/12/29 05:54:05;;;;;;;4.07;2.40;;;;;;;;;;4997102;28;20026;-68
2022/12/29 05:56:30;;;;;;;3.22;1.90;;;;;;;;;;4995657;28;20116;-68
2022/12/29 05:58:55;;;;;;;4.18;2.13;;;;;;;;;;4996959;28;20030;-69
2022/12/29 06:01:21;;;;;;;5.35;2.40;;;;;;;;;;4996782;28;20033;-69
2022/12/29 06:03:46;;;;;;;2.92;2.03;;;;;;;;;;4996832;28;20023;-68
2022/12/29 06:06:12;;;;;;;7.20;2.95;;;;;;;;;;4996781;28;20373;-68
2022/12/29 06:08:37;;;;;;;4.07;2.33;;;;;;;;;;4996954;28;20359;-68
2022/12/29 06:11:02;;;;;;;4.72;2.65;;;;;;;;;;4996617;28;20483;-69
2022/12/29 06:13:28;;;;;;;5.70;2.70;;;;;;;;;;4996916;28;20113;-68
2022/12/29 06:15:54;;;;;;;3.70;2.28;;;;;;;;;;4996759;28;20026;-68
2022/12/29 06:18:19;;;;;;;3.50;2.40;;;;;;;;;;4996621;28;20034;-68
2022/12/29 06:20:45;;;;;;;2.85;1.83;;;;;;;;;;4996271;28;20030;-68
2022/12/29 06:23:11;;;;;;;5.35;2.50;;;;;;;;;;4996614;28;20026;-69
2022/12/29 06:25:37;;;;;;;3.63;2.20;;;;;;;;;;4996518;28;20033;-68
2022/12/29 06:28:03;;;;;;;4.88;2.30;;;;;;;;;;4996500;28;20030;-69
2022/12/29 06:30:29;;;;;;;3.78;2.20;;;;;;;;;;5015386;28;20085;-68
2022/12/29 06:32:54;;;;;;;5.75;3.05;;;;;;;;;;5015939;28;20459;-68
2022/12/29 06:35:22;;;;;;;3.40;2.08;;;;;;;;;;5015528;28;20030;-68
2022/12/29 06:37:48;;;;;;;7.60;2.20;;;;;;;;;;5015818;28;20025;-68
2022/12/29 06:40:14;;;;;;;5.05;2.65;;;;;;;;;;5015706;28;20482;-68
2022/12/29 06:42:39;;;;;;;5.57;2.47;;;;;;;;;;5015185;28;20132;-68
2022/12/29 06:45:07;;;;;;;6.40;2.08;;;;;;;;;;5015670;28;20024;-68
2022/12/29 06:47:32;;;;;;;2.30;1.67;;;;;;;;;;5015687;28;20030;-68
2022/12/29 06:49:58;;;;;;;3.55;1.90;;;;;;;;;;5015286;28;20395;-68
2022/12/29 06:52:24;;;;;;;5.40;2.08;;;;;;;;;;5015508;28;20034;-68
2022/12/29 06:54:49;;;;;;;3.17;1.90;;;;;;;;;;5015616;28;20057;-68
2022/12/29 06:57:15;;;;;;;6.13;1.90;;;;;;;;;;5015490;28;20443;-68
2022/12/29 06:59:40;;;;;;;4.07;2.30;;;;;;;;;;5015409;28;20053;-68
2022/12/29 07:02:06;;;;;;;3.05;2.10;;;;;;;;;;5015248;28;20455;-68
2022/12/29 07:04:32;;;;;;;6.80;2.40;;;;;;;;;;5015050;28;20369;-69
2022/12/29 07:06:57;;;;;;;4.95;1.80;;;;;;;;;;5015548;28;20022;-69
2022/12/29 07:09:23;;;;;;;3.72;2.20;;;;;;;;;;5014103;28;20033;-68
2022/12/29 07:11:48;;;;;;;5.55;1.90;;;;;;;;;;5015298;28;20030;-68
2022/12/29 07:14:14;;;;;;;3.67;2.22;;;;;;;;;;5015225;28;20482;-68
2022/12/29 07:16:39;;;;;;;4.40;2.30;;;;;;;;;;5015222;28;20371;-68
2022/12/29 07:19:05;;;;;;;5.03;2.20;;;;;;;;;;5014904;28;20091;-68
2022/12/29 07:21:31;;;;;;;5.63;2.58;;;;;;;;;;5014914;28;20081;-68
2022/12/29 07:23:56;;;;;;;7.93;3.67;;;;;;;;;;5015141;28;20453;-68
2022/12/29 07:26:22;;;;;;;4.30;2.25;;;;;;;;;;5014757;28;20018;-68
2022/12/29 07:28:47;;;;;;;4.43;2.10;;;;;;;;;;5014758;28;20499;-68
2022/12/29 07:31:18;;;;;;;6.28;3.03;;;;;;;;;;5014782;28;20390;-68
2022/12/29 07:33:45;;;;;;;9.63;4.60;;;;;;;;;;5014806;28;20030;-68
2022/12/29 07:36:11;;;;;;;7.20;2.70;;;;;;;;;;5014686;28;20025;-68
2022/12/29 07:38:37;;;;;;;5.40;2.60;;;;;;;;;;5014571;28;20026;-67
2022/12/29 07:41:03;;;;;;;6.95;3.88;;;;;;;;;;5014432;28;20080;-68
2022/12/29 07:43:28;;;;;;;11.48;4.00;;;;;;;;;;5014453;28;20074;-68
2022/12/29 07:45:54;;;;;;;6.38;2.20;;;;;;;;;;5014407;28;20022;-67
2022/12/29 07:48:21;;;;;;;6.00;2.58;;;;;;;;;;5014399;28;20044;-67
2022/12/29 07:50:46;;;;;;;7.63;3.40;;;;;;;;;;5014374;28;20386;-68
2022/12/29 07:53:12;;;;;;;6.90;3.13;;;;;;;;;;5014196;28;20026;-68
2022/12/29 07:55:37;;;;;;;4.15;1.88;;;;;;;;;;5013775;28;20034;-68
2022/12/29 07:58:03;;;;;;;5.90;2.35;;;;;;;;;;5014376;28;20037;-67
2022/12/29 08:00:29;;;;;;;4.82;2.53;;;;;;;;;;5013854;28;20105;-68
2022/12/29 08:02:54;;;;;;;2.47;1.65;;;;;;;;;;5014268;28;20050;-68
2022/12/29 08:05:19;;;;;;;3.72;1.98;;;;;;;;;;5014153;28;20041;-68
2022/12/29 08:07:46;;;;;;;4.80;2.20;;;;;;;;;;5014207;28;20172;-68
2022/12/29 08:10:13;;;;;;;7.63;2.28;;;;;;;;;;5014261;28;20034;-68
2022/12/29 08:12:39;;;;;;;3.53;2.28;;;;;;;;;;5014151;28;20030;-68
2022/12/29 08:15:05;;;;;;;4.05;2.30;;;;;;;;;;5013775;28;20111;-67
2022/12/29 08:17:31;;;;;;;4.07;1.95;;;;;;;;;;5014080;28;20026;-68
2022/12/29 08:19:56;;;;;;;3.83;2.00;;;;;;;;;;5013794;28;20033;-68
2022/12/29 08:22:23;;;;;;;3.55;2.10;;;;;;;;;;5013878;28;20022;-68
2022/12/29 08:24:49;;;;;;;3.55;1.70;;;;;;;;;;5013773;28;20034;-68
2022/12/29 08:27:14;;;;;;;3.80;2.17;;;;;;;;;;5013686;28;20072;-67
2022/12/29 08:29:39;;;;;;;5.63;2.58;;;;;;;;;;5013476;28;20033;-68
2022/12/29 08:32:06;;;;;;;3.85;2.17;;;;;;;;;;5013666;28;20069;-68
2022/12/29 08:34:32;;;;;;;4.18;1.70;;;;;;;;;;5013638;28;20044;-67
2022/12/29 08:36:57;;;;;;;5.40;3.33;;;;;;;;;;5013690;28;20025;-67
2022/12/29 08:39:23;;;;;;;6.20;2.40;;;;;;;;;;5013628;28;20053;-68
2022/12/29 08:41:50;;;;;;;3.03;1.90;;;;;;;;;;5013084;28;20077;-68
2022/12/29 08:44:16;;;;;;;5.55;2.00;;;;;;;;;;5013414;28;20037;-67
2022/12/29 08:46:41;;;;;;;3.72;1.95;;;;;;;;;;5013384;28;20040;-67
2022/12/29 08:49:07;;;;;;;4.30;1.92;;;;;;;;;;5013494;28;20025;-68
2022/12/29 08:51:32;;;;;;;4.97;2.40;;;;;;;;;;4997163;28;20122;-68
2022/12/29 08:53:58;;;;;;;6.20;2.50;;;;;;;;;;4974138;28;20027;-67
2022/12/29 08:56:24;;;;;;;4.75;2.40;;;;;;;;;;4974092;28;20396;-68
2022/12/29 08:58:51;;;;;;;3.60;2.10;;;;;;;;;;4974207;28;20033;-68
2022/12/29 09:01:16;;;;;;;3.63;1.95;;;;;;;;;;4973988;28;20465;-68
2022/12/29 09:03:41;;;;;;;10.02;3.80;;;;;;;;;;4974158;28;20072;-67
2022/12/29 09:06:07;;;;;;;4.30;2.33;;;;;;;;;;4973587;28;20027;-68
2022/12/29 09:08:32;;;;;;;4.05;2.20;;;;;;;;;;4974128;28;20469;-68
2022/12/29 09:11:17;;;;;;;2.30;1.50;;;;;;;;;;4974128;28;20039;-68
2022/12/29 09:13:43;;;;;;;3.63;2.30;;;;;;;;;;4973817;28;20033;-68
2022/12/29 09:16:09;;;;;;;3.78;2.10;;;;;;;;;;4974153;28;20023;-68
2022/12/29 09:18:35;;;;;;;3.58;1.67;;;;;;;;;;4974019;28;20149;-68
2022/12/29 09:21:03;;;;;;;3.17;1.70;;;;;;;;;;4973878;28;20443;-67
2022/12/29 09:23:29;;;;;;;3.38;2.00;;;;;;;;;;4974001;28;20019;-67
2022/12/29 09:25:55;;;;;;;2.88;1.67;;;;;;;;;;4978764;28;20026;-68
2022/12/29 09:28:21;;;;;;;2.58;1.35;;;;;;;;;;4994479;28;20019;-67
2022/12/29 09:30:47;;;;;;;3.85;1.90;;;;;;;;;;5012819;28;20057;-67
2022/12/29 09:33:13;;;;;;;2.83;1.60;;;;;;;;;;4997691;28;20027;-68
2022/12/29 09:35:42;;;;;;;3.15;1.58;;;;;;;;;;5005140;28;20105;-68
2022/12/29 09:38:08;;;;;;;5.28;2.00;;;;;;;;;;4996250;28;20081;-68
2022/12/29 09:40:34;;;;;;;3.63;1.67;;;;;;;;;;5008728;28;20140;-68
2022/12/29 09:43:03;;;;;;;2.20;1.33;;;;;;;;;;4992665;28;20499;-68
2022/12/29 09:45:43;;;;;;;2.50;1.60;;;;;;;;;;4993284;28;20038;-68
2022/12/29 09:48:14;;;;;;;;;;;;;;;;;;4993509;28;20023;-68
2022/12/29 09:50:42;;;;;;;3.65;1.80;;;;;;;;;;4992903;28;19918;-68
2022/12/29 09:53:15;;;;;;;4.28;2.17;;;;;;;;;;4999700;28;20105;-68
2022/12/29 09:55:54;;;;;;;2.72;1.70;;;;;;;;;;5012146;28;20037;-68
2022/12/29 09:58:29;;;;;;;2.70;1.60;;;;;;;;;;5008753;28;20022;-68
2022/12/29 10:01:44;;;;;;;3.03;1.45;;;;;;;;;;4992814;28;20037;-68
2022/12/29 10:04:09;;;;;;;2.90;1.60;;;;;;;;;;4952010;29;20051;-68
2022/12/29 10:07:22;;;;;;;3.63;1.48;;;;;;;;;;4952104;29;20445;-68
2022/12/29 10:10:11;;;;;;;4.05;1.92;;;;;;;;;;4913846;29;20503;-68
2022/12/29 10:12:55;;;;;;;2.45;1.33;;;;;;;;;;4913836;29;20044;-68
2022/12/29 10:15:52;;;;;;;2.45;1.40;;;;;;;;;;4913895;29;20051;-68
2022/12/29 10:18:32;;;;;;;2.35;1.50;;;;;;;;;;4916384;29;20032;-68
2022/12/29 10:21:06;;;;;;;2.10;1.17;;;;;;;;;;4917419;29;20082;-69
2022/12/29 10:24:06;;;;;;;2.55;1.38;;;;;;;;;;4917625;29;20067;-67
2022/12/29 10:26:39;;;;;;;3.58;1.33;;;;;;;;;;4898059;29;20569;-68
2022/12/29 10:29:12;;;;;;;1.77;1.10;;;;;;;;;;4898157;29;20161;-68
2022/12/29 10:31:47;;;;;;;4.50;1.48;;;;;;;;;;4916996;29;20044;-68
2022/12/29 10:34:27;;;;;;;2.17;1.30;;;;;;;;;;4917368;29;20036;-68
2022/12/29 10:37:00;;;;;;;2.85;1.35;;;;;;;;;;4917079;29;20119;-68
2022/12/29 10:39:38;;;;;;;3.08;1.50;;;;;;;;;;4916461;29;20048;-68
2022/12/29 10:42:29;;;;;;;3.05;1.40;;;;;;;;;;4897788;29;20048;-68
2022/12/29 10:44:56;;;;;;;7.82;2.40;;;;;;;;;;4915468;29;20462;-68
2022/12/29 10:47:26;;;;;;;6.57;2.08;;;;;;;;;;4954764;29;20464;-68
2022/12/29 10:49:53;;;;;;;3.20;1.85;;;;;;;;;;4953099;29;20075;-68
2022/12/29 10:52:20;;;;;;;3.90;2.20;;;;;;;;;;4954652;29;20452;-68
2022/12/29 10:54:58;;;;;;;5.60;1.90;;;;;;;;;;4954732;29;20480;-67
2022/12/29 10:57:36;;;;;;;3.40;1.50;;;;;;;;;;4955155;29;20083;-68
2022/12/29 11:00:20;;;;;;;3.65;1.73;;;;;;;;;;4947554;29;20283;-68
2022/12/29 11:03:11;;;;;;;2.47;1.30;;;;;;;;;;4983070;28;20125;-68
2022/12/29 11:05:48;;;;;;;2.50;1.70;;;;;;;;;;4995519;28;20027;-67
2022/12/29 11:08:21;;;;;;;3.33;1.70;;;;;;;;;;4995512;28;20033;-69
2022/12/29 11:10:59;;;;;;;4.43;1.38;;;;;;;;;;4995429;28;20507;-67
2022/12/29 11:13:28;;;;;;;2.20;1.17;;;;;;;;;;4995549;28;20022;-68
2022/12/29 11:15:53;;;;;;;3.75;1.30;;;;;;;;;;4995397;28;20034;-66
2022/12/29 11:18:26;;;;;;;1.90;1.20;;;;;;;;;;4995464;28;20026;-67
2022/12/29 11:21:01;;;;;;;2.53;1.30;;;;;;;;;;4995468;28;20034;-67
2022/12/29 11:23:39;;;;;;;1.77;1.10;;;;;;;;;;4995277;28;20343;-68
2022/12/29 11:26:10;;;;;;;3.47;1.30;;;;;;;;;;4995381;28;20035;-68
2022/12/29 11:28:41;;;;;;;3.22;1.48;;;;;;;;;;4997612;28;20039;-68
2022/12/29 11:31:07;;;;;;;2.55;1.17;;;;;;;;;;5014385;28;20613;-67
2022/12/29 11:33:37;;;;;;;2.17;1.20;;;;;;;;;;5014828;28;20037;-68
2022/12/29 11:36:07;;;;;;;3.00;1.20;;;;;;;;;;5014833;28;20414;-68
2022/12/29 11:38:37;;;;;;;2.53;1.23;;;;;;;;;;5014296;28;20034;-68
2022/12/29 11:41:05;;;;;;;3.42;1.10;;;;;;;;;;5014385;28;20041;-68
2022/12/29 11:43:37;;;;;;;2.78;1.02;;;;;;;;;;5014441;28;20045;-67
2022/12/29 11:46:04;;;;;;;3.40;1.20;;;;;;;;;;5013284;28;20057;-67
2022/12/29 11:48:38;;;;;;;2.00;1.10;;;;;;;;;;5014296;28;20104;-67
2022/12/29 11:51:04;;;;;;;2.75;1.30;;;;;;;;;;5014063;28;20506;-67
2022/12/29 11:53:37;;;;;;;2.33;1.40;;;;;;;;;;5014134;28;20061;-67
2022/12/29 11:56:07;;;;;;;2.53;1.00;;;;;;;;;;5014341;28;20026;-68
2022/12/29 11:58:36;;;;;;;2.45;1.42;;;;;;;;;;5012986;28;20129;-68
2022/12/29 12:01:33;;;;;;;1.30;0.90;;;;;;;;;;5014086;28;20080;-67
2022/12/29 12:04:06;;;;;;;3.30;1.30;;;;;;;;;;5011471;28;20046;-67
2022/12/29 12:06:38;;;;;;;2.53;1.30;;;;;;;;;;5014062;28;20050;-67
2022/12/29 12:09:10;;;;;;;2.33;1.23;;;;;;;;;;5013711;28;20026;-67
2022/12/29 12:11:41;;;;;;;2.55;1.65;;;;;;;;;;5013971;28;20014;-67
2022/12/29 12:14:30;;;;;;;2.63;1.17;;;;;;;;;;5014044;28;20022;-68
2022/12/29 12:17:01;;;;;;;3.05;1.65;;;;;;;;;;5013913;28;20037;-67
2022/12/29 12:19:49;;;;;;;4.10;1.48;;;;;;;;;;5013839;28;20026;-69
2022/12/29 12:22:36;;;;;;;4.15;1.75;;;;;;;;;;5013757;28;20048;-69
2022/12/29 12:25:14;;;;;;;3.03;1.40;;;;;;;;;;5013799;28;20472;-68
2022/12/29 12:27:46;;;;;;;3.92;1.73;;;;;;;;;;5013838;28;20068;-69
2022/12/29 12:30:16;;;;;;;3.85;1.70;;;;;;;;;;5010079;28;20034;-68
2022/12/29 12:33:15;;;;;;;3.05;1.42;;;;;;;;;;4994068;28;20061;-67
2022/12/29 12:36:05;;;;;;;2.67;1.20;;;;;;;;;;4993917;28;20471;-68
2022/12/29 12:38:37;;;;;;;2.70;1.17;;;;;;;;;;4994004;28;20041;-68
2022/12/29 12:41:05;;;;;;;1.95;1.20;;;;;;;;;;4993617;28;20034;-69
2022/12/29 12:43:41;;;;;;;3.03;1.50;;;;;;;;;;4993722;28;20045;-68
2022/12/29 12:46:24;;;;;;;3.60;1.40;;;;;;;;;;4993807;28;20026;-68
2022/12/29 12:49:21;;;;;;;3.20;1.23;;;;;;;;;;4993678;28;20033;-68
2022/12/29 12:52:02;;;;;;;4.03;1.40;;;;;;;;;;4993438;28;20361;-68
2022/12/29 12:54:46;;;;;;;;;;;;;;;;;;4994077;28;20045;-68
2022/12/29 12:57:42;;;;;;;16.05;5.03;;;;;;;;;;4992168;28;20350;-69
2022/12/29 13:00:12;;;;;;;13.80;3.97;;;;;;;;;;4933365;29;20118;-68
2022/12/29 13:02:49;;;;;;;14.63;4.87;;;;;;;;;;4933417;29;20130;-68
2022/12/29 13:05:23;;;;;;;15.68;5.38;;;;;;;;;;4933281;29;20135;-69
2022/12/29 13:08:25;;;;;;;7.55;2.10;;;;;;;;;;4933615;29;20475;-69
2022/12/29 13:11:09;;;;;;;5.10;1.50;;;;;;;;;;4933611;29;20067;-69
2022/12/29 13:14:09;;;;;;;4.50;2.03;;;;;;;;;;4933359;29;20044;-69
2022/12/29 13:17:05;;;;;;;6.60;2.40;;;;;;;;;;4933454;29;20035;-69
2022/12/29 13:19:42;;;;;;;3.83;2.03;;;;;;;;;;4933453;29;20548;-68
2022/12/29 13:22:19;;;;;;;4.63;1.70;;;;;;;;;;4933284;29;20031;-68
2022/12/29 13:25:08;;;;;;;4.45;1.90;;;;;;;;;;4933239;29;20122;-68
2022/12/29 13:27:58;;;;;;;6.20;2.05;;;;;;;;;;4876875;29;20104;-68
2022/12/29 13:30:34;;;;;;;2.22;1.30;;;;;;;;;;4859001;29;20503;-69
2022/12/29 13:33:39;;;;;;;5.50;1.83;;;;;;;;;;4868772;29;20087;-68
2022/12/29 13:36:21;;;;;;;2.50;1.52;;;;;;;;;;4860219;29;20369;-68
2022/12/29 13:38:51;;;;;;;4.03;1.80;;;;;;;;;;4933379;29;20068;-68
2022/12/29 13:41:34;;;;;;;2.78;1.80;;;;;;;;;;4933153;29;20042;-68
2022/12/29 13:44:03;;;;;;;2.60;1.85;;;;;;;;;;4933312;29;20047;-69
2022/12/29 13:46:35;;;;;;;4.00;1.85;;;;;;;;;;4933112;29;20091;-68
2022/12/29 13:49:06;;;;;;;2.17;1.10;;;;;;;;;;4932729;29;20056;-68
2022/12/29 13:51:34;;;;;;;2.25;1.13;;;;;;;;;;4932724;29;20047;-69
2022/12/29 13:54:31;;;;;;;3.45;1.42;;;;;;;;;;4936388;29;20044;-68
2022/12/29 13:57:07;;;;;;;2.42;1.35;;;;;;;;;;4936670;29;20032;-68
2022/12/29 13:59:56;;;;;;;1.95;1.00;;;;;;;;;;4936558;29;20083;-68
2022/12/29 14:02:42;;;;;;;1.90;1.15;;;;;;;;;;4936789;29;20032;-68
2022/12/29 14:05:19;;;;;;;4.22;1.05;;;;;;;;;;4979688;28;20042;-68
2022/12/29 14:07:47;;;;;;;3.58;1.15;;;;;;;;;;4996769;28;20023;-69
2022/12/29 14:10:34;;;;;;;3.10;1.30;;;;;;;;;;4998472;28;20057;-68
2022/12/29 14:13:23;;;;;;;3.83;1.45;;;;;;;;;;5007788;28;20063;-68
2022/12/29 14:15:57;;;;;;;3.03;1.38;;;;;;;;;;5012219;28;20068;-68
2022/12/29 14:18:29;;;;;;;2.72;1.20;;;;;;;;;;4985400;28;20450;-68
2022/12/29 14:20:58;;;;;;;4.32;1.65;;;;;;;;;;5007016;28;20490;-68
2022/12/29 14:23:45;;;;;;;6.07;1.97;;;;;;;;;;4995679;28;20022;-68
2022/12/29 14:26:37;;;;;;;3.63;1.55;;;;;;;;;;4991697;28;20045;-68
2022/12/29 14:29:21;;;;;;;4.47;1.40;;;;;;;;;;4991607;28;20038;-68
2022/12/29 14:31:46;;;;;;;4.35;1.40;;;;;;;;;;4995974;28;20077;-68
2022/12/29 14:34:12;;;;;;;2.70;1.30;;;;;;;;;;4995925;28;20474;-69
2022/12/29 14:36:58;;;;;;;2.75;1.40;;;;;;;;;;4995958;28;20266;-68
2022/12/29 14:39:44;;;;;;;2.08;1.02;;;;;;;;;;4995973;28;20476;-69
2022/12/29 14:42:09;;;;;;;2.53;1.20;;;;;;;;;;4995532;28;20058;-68
2022/12/29 14:44:50;;;;;;;5.05;2.03;;;;;;;;;;4995878;28;20535;-68
2022/12/29 14:47:30;;;;;;;4.28;1.50;;;;;;;;;;5015100;28;20029;-68
2022/12/29 14:50:04;;;;;;;2.20;1.20;;;;;;;;;;5015154;28;20026;-68
2022/12/29 14:52:30;;;;;;;3.67;1.50;;;;;;;;;;5014851;28;20400;-68
2022/12/29 14:55:17;;;;;;;3.00;1.30;;;;;;;;;;5015311;28;20073;-68
2022/12/29 14:57:53;;;;;;;2.85;1.30;;;;;;;;;;5015385;28;20119;-69
2022/12/29 15:00:32;;;;;;;2.53;1.30;;;;;;;;;;5015061;28;20107;-69
2022/12/29 15:03:15;;;;;;;2.63;1.30;;;;;;;;;;5014911;28;20153;-69
2022/12/29 15:05:51;;;;;;;3.90;1.30;;;;;;;;;;5015284;28;20030;-68
2022/12/29 15:08:20;;;;;;;4.60;1.40;;;;;;;;;;5004076;28;20041;-68
2022/12/29 15:10:52;;;;;;;4.03;1.90;;;;;;;;;;5009999;28;20026;-68
2022/12/29 15:13:32;;;;;;;4.75;2.22;;;;;;;;;;4998592;28;20037;-68
2022/12/29 15:15:57;;;;;;;4.83;1.37;;;;;;;;;;5006395;28;20074;-69
2022/12/29 15:18:29;;;;;;;3.30;1.50;;;;;;;;;;5006965;28;20104;-68
2022/12/29 15:20:58;;;;;;;6.15;2.55;;;;;;;;;;5014963;28;20034;-68
2022/12/29 15:23:25;;;;;;;4.57;2.15;;;;;;;;;;5014918;28;20049;-68
2022/12/29 15:26:00;;;;;;;3.83;1.85;;;;;;;;;;5014779;28;20021;-68
2022/12/29 15:28:28;;;;;;;3.53;2.03;;;;;;;;;;5014445;28;20026;-68
2022/12/29 15:31:03;;;;;;;5.18;1.92;;;;;;;;;;5014507;28;20026;-67
2022/12/29 15:33:29;;;;;;;5.22;2.30;;;;;;;;;;5006558;28;20034;-68
2022/12/29 15:35:57;;;;;;;6.45;1.98;;;;;;;;;;5006456;28;20058;-68
2022/12/29 15:38:27;;;;;;;3.83;2.00;;;;;;;;;;4998968;28;20026;-68
2022/12/29 15:40:54;;;;;;;;;;;;;;;;;;5011163;28;20479;-68
2022/12/29 15:43:46;;;;;;;4.40;2.15;;;;;;;;;;4994551;28;19921;-68